createdAt,value
2019-04-03T00:01:34.065Z,98.63
2019-04-03T00:04:07.139Z,98.78
2019-04-03T00:06:39.710Z,98.83
2019-04-03T00:09:12.754Z,98.78
2019-04-03T00:11:47.090Z,98.93
2019-04-03T00:14:21.417Z,99.09
2019-04-03T00:16:54.129Z,99.26
2019-04-03T00:19:27.689Z,99.43
2019-04-03T00:22:01.548Z,99.56
2019-04-03T00:24:34.974Z,99.74
2019-04-03T00:27:07.486Z,99.80
2019-04-03T00:29:40.315Z,99.87
2019-04-03T00:32:13.305Z,99.93
2019-04-03T00:34:45.902Z,100.00
2019-04-03T00:37:21.530Z,100.00
2019-04-03T00:39:56.570Z,100.00
2019-04-03T00:42:29.149Z,100.00
2019-04-03T00:45:03.649Z,100.00
2019-04-03T00:47:36.236Z,100.00
2019-04-03T00:50:08.778Z,100.00
2019-04-03T00:52:42.919Z,100.00
2019-04-03T00:55:15.970Z,100.00
2019-04-03T00:57:49.551Z,100.00
2019-04-03T01:00:22.839Z,100.00
2019-04-03T01:02:58.140Z,100.00
2019-04-03T01:05:31.322Z,100.00
2019-04-03T01:08:04.788Z,100.00
2019-04-03T01:10:37.293Z,100.00
2019-04-03T01:13:09.899Z,100.00
2019-04-03T01:15:43.675Z,100.00
2019-04-03T01:18:16.238Z,100.00
2019-04-03T01:20:48.822Z,100.00
2019-04-03T01:23:21.656Z,100.00
2019-04-03T01:25:54.230Z,100.00
2019-04-03T01:28:26.766Z,100.00
2019-04-03T01:30:59.631Z,100.00
2019-04-03T01:33:32.352Z,99.99
2019-04-03T01:36:05.020Z,99.50
2019-04-03T01:38:38.950Z,98.94
2019-04-03T01:41:11.791Z,98.56
2019-04-03T01:43:44.971Z,98.20
2019-04-03T01:46:17.715Z,97.97
2019-04-03T01:48:53.944Z,97.76
2019-04-03T01:51:27.745Z,97.44
2019-04-03T01:54:06.141Z,97.19
2019-04-03T01:56:39.094Z,97.18
2019-04-03T01:59:13.095Z,97.10
2019-04-03T02:01:49.152Z,97.12
2019-04-03T02:04:21.772Z,97.03
2019-04-03T02:06:54.720Z,97.05
2019-04-03T02:09:27.278Z,97.30
2019-04-03T02:11:59.908Z,97.62
2019-04-03T02:14:33.938Z,97.81
2019-04-03T02:17:06.406Z,97.88
2019-04-03T02:19:39.005Z,97.83
2019-04-03T02:22:11.825Z,97.96
2019-04-03T02:24:44.473Z,97.80
2019-04-03T02:27:16.943Z,97.39
2019-04-03T02:29:54.243Z,96.84
2019-04-03T02:32:27.078Z,96.41
2019-04-03T02:34:59.658Z,95.89
2019-04-03T02:37:32.375Z,95.60
2019-04-03T02:40:06.539Z,95.58
2019-04-03T02:42:41.237Z,95.62
2019-04-03T02:45:16.901Z,95.77
2019-04-03T02:47:49.463Z,95.91
2019-04-03T02:50:26.502Z,95.98
2019-04-03T02:52:59.555Z,96.05
2019-04-03T02:55:32.301Z,95.96
2019-04-03T02:58:06.984Z,95.89
2019-04-03T03:00:39.515Z,95.93
2019-04-03T03:03:12.037Z,96.01
2019-04-03T03:05:45.352Z,96.08
2019-04-03T03:08:18.225Z,96.08
2019-04-03T03:10:52.931Z,95.99
2019-04-03T03:13:27.120Z,95.96
2019-04-03T03:16:00.319Z,95.95
2019-04-03T03:18:33.386Z,95.98
2019-04-03T03:21:07.348Z,96.00
2019-04-03T03:23:40.587Z,95.82
2019-04-03T03:26:13.404Z,95.70
2019-04-03T03:28:47.923Z,95.62
2019-04-03T03:31:44.432Z,95.69
2019-04-03T03:34:51.492Z,95.42
2019-04-03T03:37:28.619Z,95.18
2019-04-03T03:40:02.259Z,95.17
2019-04-03T03:42:35.920Z,95.09
2019-04-03T03:45:10.521Z,95.14
2019-04-03T03:47:45.143Z,94.83
2019-04-03T03:50:26.261Z,94.56
2019-04-03T03:52:59.643Z,94.51
2019-04-03T03:55:34.368Z,94.56
2019-04-03T03:58:11.058Z,94.61
2019-04-03T04:00:51.173Z,94.78
2019-04-03T04:03:24.876Z,94.87
2019-04-03T04:05:58.081Z,94.92
2019-04-03T04:08:31.284Z,94.83
2019-04-03T04:11:03.846Z,94.70
2019-04-03T04:13:37.869Z,94.73
2019-04-03T04:16:10.605Z,94.71
2019-04-03T04:18:43.402Z,94.78
2019-04-03T04:21:18.069Z,94.90
2019-04-03T04:23:50.985Z,94.95
2019-04-03T04:26:23.786Z,94.93
2019-04-03T04:28:56.893Z,94.96
2019-04-03T04:31:29.926Z,95.04
2019-04-03T04:34:04.157Z,95.00
2019-04-03T04:36:37.743Z,94.94
2019-04-03T04:39:12.424Z,94.94
2019-04-03T04:41:46.960Z,95.11
2019-04-03T04:44:20.327Z,95.33
2019-04-03T04:46:52.980Z,95.63
2019-04-03T04:49:26.646Z,95.75
2019-04-03T04:52:01.677Z,95.94
2019-04-03T04:54:35.218Z,96.08
2019-04-03T04:57:09.518Z,96.32
2019-04-03T04:59:44.319Z,96.52
2019-04-03T05:02:19.743Z,96.66
2019-04-03T05:04:53.907Z,97.02
2019-04-03T05:07:30.826Z,97.29
2019-04-03T05:10:05.885Z,97.40
2019-04-03T05:12:42.652Z,97.44
2019-04-03T05:15:19.557Z,97.49
2019-04-03T05:17:54.208Z,97.52
2019-04-03T05:20:26.869Z,97.72
2019-04-03T05:23:01.159Z,97.77
2019-04-03T05:25:34.000Z,97.81
2019-04-03T05:28:06.670Z,97.82
2019-04-03T05:30:39.759Z,97.88
2019-04-03T05:33:13.073Z,97.93
2019-04-03T05:35:48.192Z,98.11
2019-04-03T05:38:22.500Z,98.24
2019-04-03T05:40:56.491Z,98.33
2019-04-03T05:43:31.095Z,98.39
2019-04-03T05:46:06.357Z,98.46
2019-04-03T05:48:39.010Z,98.55
2019-04-03T05:51:11.929Z,98.42
2019-04-03T05:53:46.851Z,98.49
2019-04-03T05:56:19.610Z,98.69
2019-04-03T05:58:56.702Z,98.76
2019-04-03T06:01:30.892Z,98.80
2019-04-03T06:04:05.219Z,98.97
2019-04-03T06:06:39.376Z,99.10
2019-04-03T06:09:11.910Z,99.21
2019-04-03T06:11:44.941Z,99.25
2019-04-03T06:14:19.057Z,99.25
2019-04-03T06:16:52.131Z,99.35
2019-04-03T06:19:25.930Z,99.45
2019-04-03T06:21:58.517Z,99.40
2019-04-03T06:24:30.988Z,99.25
2019-04-03T06:27:04.997Z,99.12
2019-04-03T06:29:38.156Z,99.08
2019-04-03T06:32:12.721Z,99.12
2019-04-03T06:34:46.586Z,99.10
2019-04-03T06:37:20.166Z,99.04
2019-04-03T06:39:54.176Z,99.05
2019-04-03T06:42:28.594Z,99.05
2019-04-03T06:45:03.343Z,99.06
2019-04-03T06:47:36.040Z,99.07
2019-04-03T06:50:10.357Z,99.02
2019-04-03T06:52:45.315Z,98.87
2019-04-03T06:55:20.584Z,98.73
2019-04-03T06:57:53.622Z,98.64
2019-04-03T07:00:26.776Z,98.60
2019-04-03T07:03:01.500Z,98.65
2019-04-03T07:05:37.417Z,98.78
2019-04-03T07:08:10.012Z,98.85
2019-04-03T07:10:54.218Z,98.80
2019-04-03T07:13:29.457Z,98.77
2019-04-03T07:16:06.325Z,98.74
2019-04-03T07:18:40.404Z,98.77
2019-04-03T07:21:14.437Z,98.83
2019-04-03T07:23:50.386Z,98.95
2019-04-03T07:26:23.549Z,99.07
2019-04-03T07:28:57.779Z,99.04
2019-04-03T07:31:33.859Z,99.04
2019-04-03T07:34:11.904Z,99.15
2019-04-03T07:36:46.340Z,99.32
2019-04-03T07:39:28.667Z,99.34
2019-04-03T07:42:01.206Z,99.47
2019-04-03T07:44:34.185Z,99.43
2019-04-03T07:47:06.810Z,99.26
2019-04-03T07:49:40.700Z,99.38
2019-04-03T07:52:16.793Z,99.72
2019-04-03T07:54:51.876Z,99.78
2019-04-03T07:57:28.110Z,99.81
2019-04-03T08:00:06.195Z,99.74
2019-04-03T08:02:39.761Z,99.32
2019-04-03T08:05:15.620Z,98.91
2019-04-03T08:07:48.676Z,98.42
2019-04-03T08:10:22.338Z,97.20
2019-04-03T08:13:05.030Z,96.80
2019-04-03T08:15:39.067Z,96.64
2019-04-03T08:18:11.977Z,96.48
2019-04-03T08:20:48.990Z,96.65
2019-04-03T08:23:22.346Z,96.72
2019-04-03T08:25:58.117Z,96.92
2019-04-03T08:28:31.059Z,97.02
2019-04-03T08:31:03.807Z,97.26
2019-04-03T08:33:38.081Z,97.44
2019-04-03T08:36:22.536Z,97.56
2019-04-03T08:38:58.874Z,97.46
2019-04-03T08:41:36.447Z,97.58
2019-04-03T08:44:11.106Z,97.71
2019-04-03T08:46:47.511Z,97.86
2019-04-03T08:49:21.358Z,97.86
2019-04-03T08:51:54.850Z,98.06
2019-04-03T08:54:27.315Z,97.63
2019-04-03T08:57:02.447Z,96.58
2019-04-03T08:59:35.143Z,95.70
2019-04-03T09:02:12.738Z,94.32
2019-04-03T09:04:48.786Z,93.70
2019-04-03T09:07:24.926Z,93.41
2019-04-03T09:10:07.812Z,91.97
2019-04-03T09:12:45.389Z,91.48
2019-04-03T09:15:20.542Z,89.99
2019-04-03T09:17:55.482Z,87.74
2019-04-03T09:20:29.191Z,87.77
2019-04-03T09:23:02.106Z,87.26
2019-04-03T09:25:35.047Z,86.85
2019-04-03T09:28:22.859Z,85.29
2019-04-03T09:30:57.056Z,85.52
2019-04-03T09:33:30.574Z,85.41
2019-04-03T09:36:04.418Z,85.66
2019-04-03T09:38:40.649Z,86.46
2019-04-03T09:41:14.301Z,87.08
2019-04-03T09:43:47.042Z,87.52
2019-04-03T09:46:19.762Z,87.18
2019-04-03T09:48:52.442Z,88.01
2019-04-03T09:51:25.249Z,88.23
2019-04-03T09:53:58.342Z,88.83
2019-04-03T09:56:31.861Z,88.79
2019-04-03T09:59:06.666Z,89.52
2019-04-03T10:01:42.255Z,88.28
2019-04-03T10:04:15.352Z,88.04
2019-04-03T10:06:47.973Z,88.69
2019-04-03T10:09:21.206Z,87.93
2019-04-03T10:11:55.799Z,87.63
2019-04-03T10:14:28.973Z,85.91
2019-04-03T10:17:01.515Z,85.74
2019-04-03T10:19:35.671Z,84.92
2019-04-03T10:22:11.893Z,83.19
2019-04-03T10:24:45.930Z,81.02
2019-04-03T10:27:19.114Z,80.55
2019-04-03T10:30:00.043Z,79.46
2019-04-03T10:32:45.094Z,77.78
2019-04-03T10:35:18.484Z,77.69
2019-04-03T10:37:52.159Z,78.56
2019-04-03T10:40:26.919Z,77.16
2019-04-03T10:43:02.825Z,78.18
2019-04-03T10:45:40.931Z,78.79
2019-04-03T10:48:17.140Z,77.33
2019-04-03T10:50:49.871Z,76.45
2019-04-03T10:53:25.775Z,76.78
2019-04-03T10:55:59.846Z,77.18
2019-04-03T10:58:34.519Z,78.57
2019-04-03T11:01:07.544Z,77.01
2019-04-03T11:03:40.153Z,75.62
2019-04-03T11:06:13.439Z,75.40
2019-04-03T11:08:47.755Z,74.23
2019-04-03T11:11:20.898Z,74.83
2019-04-03T11:13:55.499Z,75.12
2019-04-03T11:16:29.993Z,74.22
2019-04-03T11:19:06.767Z,72.98
2019-04-03T11:21:43.251Z,72.89
2019-04-03T11:24:19.210Z,72.73
2019-04-03T11:26:54.850Z,71.62
2019-04-03T11:29:28.266Z,71.12
2019-04-03T11:32:01.064Z,69.97
2019-04-03T11:34:36.290Z,69.54
2019-04-03T11:37:10.095Z,69.71
2019-04-03T11:39:45.645Z,70.80
2019-04-03T11:42:24.907Z,70.85
2019-04-03T11:45:03.502Z,71.62
2019-04-03T11:47:39.239Z,72.39
2019-04-03T11:50:14.416Z,73.06
2019-04-03T11:52:47.586Z,73.57
2019-04-03T11:55:21.093Z,73.93
2019-04-03T11:57:55.183Z,73.75
2019-04-03T12:00:32.137Z,72.75
2019-04-03T12:03:06.643Z,73.13
2019-04-03T12:05:41.634Z,71.59
2019-04-03T12:08:15.510Z,70.83
2019-04-03T12:10:48.805Z,69.08
2019-04-03T12:13:29.913Z,67.42
2019-04-03T12:16:04.390Z,64.90
2019-04-03T12:18:39.742Z,65.58
2019-04-03T12:21:14.370Z,65.61
2019-04-03T12:23:58.524Z,65.90
2019-04-03T12:26:55.916Z,66.45
2019-04-03T12:29:34.680Z,66.98
2019-04-03T12:32:10.315Z,66.89
2019-04-03T12:34:43.124Z,68.09
2019-04-03T12:37:19.593Z,68.03
2019-04-03T12:39:56.236Z,67.43
2019-04-03T12:42:33.138Z,67.85
2019-04-03T12:45:09.485Z,66.65
2019-04-03T12:47:50.965Z,67.47
2019-04-03T12:50:29.252Z,66.39
2019-04-03T12:53:03.409Z,66.48
2019-04-03T12:55:36.342Z,66.67
2019-04-03T12:58:17.203Z,66.45
2019-04-03T13:00:50.480Z,65.39
2019-04-03T13:03:25.685Z,64.69
2019-04-03T13:05:59.633Z,64.13
2019-04-03T13:08:32.990Z,64.02
2019-04-03T13:11:06.497Z,64.31
2019-04-03T13:13:41.295Z,64.05
2019-04-03T13:16:15.826Z,64.67
2019-04-03T13:18:49.518Z,64.35
2019-04-03T13:21:22.939Z,63.61
2019-04-03T13:23:59.874Z,63.97
2019-04-03T13:26:34.166Z,64.40
2019-04-03T13:29:08.927Z,63.60
2019-04-03T13:31:50.601Z,63.59
2019-04-03T13:34:36.196Z,62.82
2019-04-03T13:37:09.998Z,62.56
2019-04-03T13:39:45.149Z,61.93
2019-04-03T13:42:17.988Z,62.30
2019-04-03T13:44:53.100Z,62.05
2019-04-03T13:47:26.263Z,61.53
2019-04-03T13:50:03.315Z,61.86
2019-04-03T13:52:43.052Z,61.95
2019-04-03T13:55:23.508Z,61.73
2019-04-03T13:57:56.895Z,62.25
2019-04-03T14:00:33.825Z,62.21
2019-04-03T14:03:13.152Z,62.57
2019-04-03T14:05:49.453Z,62.53
2019-04-03T14:08:22.231Z,62.17
2019-04-03T14:11:00.390Z,62.30
2019-04-03T14:13:42.577Z,62.74
2019-04-03T14:16:21.741Z,63.27
2019-04-03T14:18:57.839Z,63.41
2019-04-03T14:21:30.714Z,63.28
2019-04-03T14:24:03.780Z,63.05
2019-04-03T14:26:39.294Z,63.26
2019-04-03T14:29:13.744Z,63.31
2019-04-03T14:31:48.554Z,63.16
2019-04-03T14:34:24.577Z,63.49
2019-04-03T14:36:58.336Z,63.38
2019-04-03T14:39:39.252Z,63.26
2019-04-03T14:42:15.218Z,63.57
2019-04-03T14:44:51.280Z,64.17
2019-04-03T14:47:27.917Z,64.62
2019-04-03T14:50:05.382Z,64.65
2019-04-03T14:52:44.128Z,64.31
2019-04-03T14:55:24.350Z,64.37
2019-04-03T14:57:57.682Z,64.53
2019-04-03T15:00:33.225Z,64.36
2019-04-03T15:03:13.849Z,64.45
2019-04-03T15:05:47.024Z,64.41
2019-04-03T15:08:22.835Z,64.31
2019-04-03T15:10:57.018Z,64.19
2019-04-03T15:13:30.796Z,63.88
2019-04-03T15:16:06.296Z,63.45
2019-04-03T15:18:54.686Z,63.45
2019-04-03T15:21:32.338Z,63.31
2019-04-03T15:24:11.383Z,63.70
2019-04-03T15:26:46.999Z,63.96
2019-04-03T15:29:19.737Z,63.38
2019-04-03T15:31:53.938Z,63.49
2019-04-03T15:34:30.188Z,63.95
2019-04-03T15:37:04.251Z,64.05
2019-04-03T15:39:41.748Z,64.29
2019-04-03T15:42:20.926Z,64.61
2019-04-03T15:45:00.987Z,64.89
2019-04-03T15:47:55.257Z,65.03
2019-04-03T15:50:33.400Z,65.53
2019-04-03T15:53:14.199Z,65.71
2019-04-03T15:55:48.037Z,65.71
2019-04-03T15:58:27.174Z,65.92
2019-04-03T16:01:09.253Z,66.02
2019-04-03T16:03:44.291Z,66.11
2019-04-03T16:06:26.640Z,66.00
2019-04-03T16:09:01.297Z,65.93
2019-04-03T16:11:38.081Z,66.18
2019-04-03T16:14:12.482Z,66.11
2019-04-03T16:16:48.418Z,66.38
2019-04-03T16:19:24.710Z,66.87
2019-04-03T16:21:59.106Z,67.22
2019-04-03T16:24:32.433Z,67.69
2019-04-03T16:27:07.323Z,68.04
2019-04-03T16:29:41.914Z,68.59
2019-04-03T16:32:15.420Z,68.90
2019-04-03T16:34:50.705Z,69.02
2019-04-03T16:37:23.489Z,69.20
2019-04-03T16:39:57.957Z,69.60
2019-04-03T16:42:33.714Z,69.76
2019-04-03T16:45:12.009Z,70.05
2019-04-03T16:47:50.475Z,70.64
2019-04-03T16:50:27.449Z,70.88
2019-04-03T16:53:01.803Z,70.93
2019-04-03T16:55:35.686Z,71.07
2019-04-03T16:58:15.767Z,71.08
2019-04-03T17:00:54.176Z,71.19
2019-04-03T17:03:31.754Z,71.46
2019-04-03T17:06:07.938Z,71.90
2019-04-03T17:08:45.341Z,72.67
2019-04-03T17:11:22.623Z,73.15
2019-04-03T17:13:57.452Z,73.81
2019-04-03T17:16:37.369Z,73.84
2019-04-03T17:19:12.307Z,74.57
2019-04-03T17:21:47.164Z,74.72
2019-04-03T17:24:43.639Z,75.01
2019-04-03T17:27:24.956Z,75.45
2019-04-03T17:29:58.761Z,75.49
2019-04-03T17:32:35.462Z,75.85
2019-04-03T17:35:09.939Z,76.21
2019-04-03T17:37:43.647Z,76.44
2019-04-03T17:40:18.787Z,76.71
2019-04-03T17:42:51.468Z,76.76
2019-04-03T17:45:24.746Z,76.90
2019-04-03T17:47:58.838Z,77.01
2019-04-03T17:50:31.648Z,77.08
2019-04-03T17:53:12.793Z,77.21
2019-04-03T17:55:46.012Z,78.09
2019-04-03T17:58:24.380Z,77.27
2019-04-03T18:00:59.014Z,77.72
2019-04-03T18:03:35.113Z,78.29
2019-04-03T18:06:08.915Z,78.84
2019-04-03T18:08:44.588Z,79.17
2019-04-03T18:11:18.138Z,79.41
2019-04-03T18:13:52.982Z,79.51
2019-04-03T18:16:30.394Z,79.62
2019-04-03T18:19:04.937Z,79.49
2019-04-03T18:21:39.498Z,79.56
2019-04-03T18:24:13.430Z,79.63
2019-04-03T18:26:47.927Z,79.77
2019-04-03T18:29:24.324Z,79.81
2019-04-03T18:31:59.069Z,80.12
2019-04-03T18:34:31.964Z,80.47
2019-04-03T18:37:18.125Z,80.50
2019-04-03T18:39:51.504Z,80.62
2019-04-03T18:42:24.468Z,80.69
2019-04-03T18:44:59.195Z,80.93
2019-04-03T18:47:41.121Z,81.14
2019-04-03T18:50:17.246Z,81.75
2019-04-03T18:52:52.812Z,82.19
2019-04-03T18:55:26.698Z,82.76
2019-04-03T18:57:59.377Z,83.02
2019-04-03T19:00:34.301Z,83.13
2019-04-03T19:03:11.207Z,83.41
2019-04-03T19:05:46.410Z,83.59
2019-04-03T19:08:19.136Z,83.80
2019-04-03T19:11:02.121Z,83.92
2019-04-03T19:13:36.691Z,84.05
2019-04-03T19:16:10.710Z,84.39
2019-04-03T19:18:46.665Z,84.87
2019-04-03T19:21:28.463Z,84.87
2019-04-03T19:24:03.908Z,84.98
2019-04-03T19:26:37.457Z,85.11
2019-04-03T19:29:10.318Z,85.32
2019-04-03T19:31:43.955Z,85.75
2019-04-03T19:34:19.897Z,85.81
2019-04-03T19:36:55.227Z,86.06
2019-04-03T19:39:29.163Z,86.17
2019-04-03T19:42:04.625Z,86.27
2019-04-03T19:44:41.583Z,86.30
2019-04-03T19:47:16.778Z,86.03
2019-04-03T19:50:00.866Z,85.87
2019-04-03T19:52:37.094Z,85.86
2019-04-03T19:55:12.121Z,85.98
2019-04-03T19:57:45.741Z,86.05
2019-04-03T20:00:27.563Z,85.93
2019-04-03T20:03:00.778Z,86.06
2019-04-03T20:05:34.516Z,86.31
2019-04-03T20:08:08.153Z,86.44
2019-04-03T20:10:40.926Z,86.56
2019-04-03T20:13:15.933Z,86.75
2019-04-03T20:15:48.569Z,86.77
2019-04-03T20:18:21.322Z,86.81
2019-04-03T20:20:59.446Z,86.99
2019-04-03T20:23:35.038Z,87.04
2019-04-03T20:26:12.517Z,87.13
2019-04-03T20:28:44.964Z,87.26
2019-04-03T20:31:17.694Z,87.38
2019-04-03T20:33:50.872Z,87.42
2019-04-03T20:36:23.909Z,87.48
2019-04-03T20:38:58.286Z,87.44
2019-04-03T20:41:34.654Z,87.60
2019-04-03T20:44:09.896Z,87.74
2019-04-03T20:46:42.599Z,87.79
2019-04-03T20:49:15.155Z,87.71
2019-04-03T20:51:48.819Z,87.86
2019-04-03T20:54:24.148Z,87.96
2019-04-03T20:57:01.952Z,88.09
2019-04-03T20:59:37.226Z,88.08
2019-04-03T21:02:10.766Z,88.08
2019-04-03T21:04:48.739Z,88.13
2019-04-03T21:07:25.699Z,88.25
2019-04-03T21:10:01.571Z,88.41
2019-04-03T21:12:36.441Z,88.59
2019-04-03T21:15:18.663Z,88.67
2019-04-03T21:17:52.950Z,88.69
2019-04-03T21:20:27.124Z,88.74
2019-04-03T21:23:03.640Z,88.87
2019-04-03T21:25:40.711Z,88.94
2019-04-03T21:28:13.787Z,89.12
2019-04-03T21:30:46.979Z,89.11
2019-04-03T21:33:19.979Z,89.14
2019-04-03T21:35:52.576Z,89.04
2019-04-03T21:38:25.738Z,89.17
2019-04-03T21:40:58.330Z,89.27
2019-04-03T21:43:30.938Z,89.32
2019-04-03T21:46:04.978Z,89.34
2019-04-03T21:48:37.748Z,89.29
2019-04-03T21:51:10.281Z,89.36
2019-04-03T21:53:43.656Z,89.48
2019-04-03T21:56:16.503Z,89.54
2019-04-03T21:58:50.197Z,89.65
2019-04-03T22:01:25.475Z,89.71
2019-04-03T22:03:58.075Z,89.76
2019-04-03T22:06:30.674Z,89.92
2019-04-03T22:09:11.411Z,89.91
2019-04-03T22:11:44.070Z,89.96
2019-04-03T22:14:16.784Z,90.07
2019-04-03T22:16:50.796Z,90.10
2019-04-03T22:19:27.435Z,90.19
2019-04-03T22:22:01.045Z,90.29
2019-04-03T22:24:37.753Z,90.29
2019-04-03T22:27:12.122Z,90.29
2019-04-03T22:29:46.446Z,90.27
2019-04-03T22:32:20.700Z,90.27
2019-04-03T22:34:53.383Z,90.18
2019-04-03T22:37:27.750Z,90.21
2019-04-03T22:40:04.440Z,90.17
2019-04-03T22:42:37.005Z,90.13
2019-04-03T22:45:09.770Z,90.24
2019-04-03T22:47:47.416Z,90.34
2019-04-03T22:50:24.843Z,90.38
2019-04-03T22:52:58.281Z,90.37
2019-04-03T22:55:32.539Z,90.34
2019-04-03T22:58:05.954Z,90.35
2019-04-03T23:00:41.242Z,90.36
2019-04-03T23:03:14.144Z,90.30
2019-04-03T23:05:48.513Z,90.27
2019-04-03T23:08:22.781Z,90.20
2019-04-03T23:11:00.695Z,90.13
2019-04-03T23:13:35.753Z,90.11
2019-04-03T23:16:09.606Z,90.11
2019-04-03T23:18:46.853Z,90.14
2019-04-03T23:21:23.525Z,90.13
2019-04-03T23:23:58.444Z,90.14
2019-04-03T23:26:32.827Z,90.09
2019-04-03T23:29:06.520Z,90.05
2019-04-03T23:31:39.146Z,90.04
2019-04-03T23:34:13.302Z,89.95
2019-04-03T23:36:47.670Z,90.01
2019-04-03T23:39:20.966Z,90.25
2019-04-03T23:41:57.479Z,90.38
2019-04-03T23:44:30.065Z,90.55
2019-04-03T23:47:02.739Z,90.83
2019-04-03T23:49:36.790Z,91.15
2019-04-03T23:52:09.456Z,91.64
2019-04-03T23:54:42.036Z,91.78
2019-04-03T23:57:17.080Z,91.81
2019-04-03T23:59:49.616Z,91.93
